createdAt,value
2022-09-03T00:00:04.756Z,14.70
2022-09-03T00:03:04.798Z,14.70
2022-09-03T00:05:41.175Z,14.68
2022-09-03T00:08:21.149Z,14.60
2022-09-03T00:10:56.849Z,14.60
2022-09-03T00:13:35.185Z,14.60
2022-09-03T00:16:11.189Z,14.60
2022-09-03T00:18:48.443Z,14.50
2022-09-03T00:21:24.262Z,14.50
2022-09-03T00:23:55.129Z,14.50
2022-09-03T00:26:31.884Z,14.40
2022-09-03T00:29:07.432Z,14.40
2022-09-03T00:31:40.028Z,14.30
2022-09-03T00:34:20.297Z,14.30
2022-09-03T00:36:49.758Z,14.20
2022-09-03T00:39:21.955Z,14.20
2022-09-03T00:42:10.153Z,14.10
2022-09-03T00:45:06.327Z,14.10
2022-09-03T00:47:50.743Z,14.00
2022-09-03T00:50:31.850Z,13.90
2022-09-03T00:53:12.387Z,13.90
2022-09-03T00:55:47.063Z,13.88
2022-09-03T00:58:45.594Z,13.80
2022-09-03T01:01:21.564Z,13.70
2022-09-03T01:04:06.722Z,13.70
2022-09-03T01:06:46.563Z,13.64
2022-09-03T01:09:33.691Z,13.60
2022-09-03T01:12:14.303Z,13.54
2022-09-03T01:15:00.858Z,13.50
2022-09-03T01:17:42.865Z,13.40
2022-09-03T01:20:28.356Z,13.40
2022-09-03T01:23:37.485Z,13.30
2022-09-03T01:26:22.857Z,13.30
2022-09-03T01:29:08.638Z,13.20
2022-09-03T01:31:50.280Z,13.20
2022-09-03T01:34:33.183Z,13.10
2022-09-03T01:37:14.119Z,13.10
2022-09-03T01:39:59.330Z,13.02
2022-09-03T01:42:42.929Z,13.00
2022-09-03T01:45:38.452Z,13.00
2022-09-03T01:48:40.135Z,12.90
2022-09-03T01:51:19.744Z,12.90
2022-09-03T01:54:17.923Z,12.82
2022-09-03T01:57:35.482Z,12.80
2022-09-03T02:00:13.034Z,12.72
2022-09-03T02:02:46.905Z,12.70
2022-09-03T02:05:19.998Z,12.70
2022-09-03T02:07:54.806Z,12.60
2022-09-03T02:10:29.844Z,12.60
2022-09-03T02:13:05.598Z,12.54
2022-09-03T02:15:37.548Z,12.50
2022-09-03T02:18:15.035Z,12.50
2022-09-03T02:20:44.934Z,12.40
2022-09-03T02:23:14.646Z,12.40
2022-09-03T02:25:51.522Z,12.40
2022-09-03T02:28:21.759Z,12.30
2022-09-03T02:30:51.293Z,12.30
2022-09-03T02:33:20.858Z,12.28
2022-09-03T02:35:51.364Z,12.20
2022-09-03T02:38:25.200Z,12.20
2022-09-03T02:40:55.108Z,12.10
2022-09-03T02:43:31.374Z,12.10
2022-09-03T02:46:04.244Z,12.10
2022-09-03T02:48:33.767Z,12.00
2022-09-03T02:51:13.954Z,12.00
2022-09-03T02:53:43.433Z,12.00
2022-09-03T02:56:13.285Z,11.90
2022-09-03T02:58:42.844Z,11.90
2022-09-03T03:01:14.586Z,11.84
2022-09-03T03:03:53.481Z,11.80
2022-09-03T03:06:23.349Z,11.80
2022-09-03T03:08:55.628Z,11.80
2022-09-03T03:11:25.941Z,11.72
2022-09-03T03:13:55.344Z,11.70
2022-09-03T03:16:24.726Z,11.70
2022-09-03T03:18:55.891Z,11.60
2022-09-03T03:21:25.676Z,11.60
2022-09-03T03:23:55.021Z,11.58
2022-09-03T03:26:24.302Z,11.50
2022-09-03T03:29:01.079Z,11.50
2022-09-03T03:31:30.894Z,11.50
2022-09-03T03:34:02.689Z,11.40
2022-09-03T03:36:33.607Z,11.40
2022-09-03T03:39:03.805Z,11.38
2022-09-03T03:41:35.984Z,11.30
2022-09-03T03:44:07.882Z,11.30
2022-09-03T03:46:39.588Z,11.30
2022-09-03T03:49:10.590Z,11.28
2022-09-03T03:51:40.773Z,11.20
2022-09-03T03:54:10.196Z,11.20
2022-09-03T03:56:42.230Z,11.20
2022-09-03T03:59:11.734Z,11.12
2022-09-03T04:01:41.079Z,11.10
2022-09-03T04:04:10.331Z,11.10
2022-09-03T04:06:39.639Z,11.10
2022-09-03T04:09:09.087Z,11.10
2022-09-03T04:11:38.754Z,11.10
2022-09-03T04:14:08.063Z,11.10
2022-09-03T04:16:37.395Z,11.10
2022-09-03T04:19:06.953Z,11.10
2022-09-03T04:21:36.685Z,11.10
2022-09-03T04:24:07.586Z,11.10
2022-09-03T04:26:37.751Z,11.10
2022-09-03T04:29:09.412Z,11.10
2022-09-03T04:31:59.775Z,11.10
2022-09-03T04:34:30.121Z,11.10
2022-09-03T04:36:59.364Z,11.10
2022-09-03T04:39:28.780Z,11.10
2022-09-03T04:42:00.004Z,11.10
2022-09-03T04:44:29.552Z,11.10
2022-09-03T04:46:58.762Z,11.14
2022-09-03T04:49:28.063Z,11.20
2022-09-03T04:51:57.353Z,11.20
2022-09-03T04:54:29.237Z,11.30
2022-09-03T04:56:59.281Z,11.30
2022-09-03T04:59:28.528Z,11.34
2022-09-03T05:01:57.878Z,11.40
2022-09-03T05:04:27.539Z,11.50
2022-09-03T05:06:56.842Z,11.60
2022-09-03T05:09:26.263Z,11.60
2022-09-03T05:11:55.511Z,11.70
2022-09-03T05:14:24.845Z,11.88
2022-09-03T05:16:54.151Z,12.00
2022-09-03T05:19:23.963Z,12.10
2022-09-03T05:21:53.492Z,12.20
2022-09-03T05:24:22.768Z,12.30
2022-09-03T05:26:52.166Z,12.40
2022-09-03T05:29:21.894Z,12.48
2022-09-03T05:31:51.320Z,12.60
2022-09-03T05:34:20.686Z,12.70
2022-09-03T05:36:50.216Z,13.10
2022-09-03T05:39:19.541Z,13.34
2022-09-03T05:41:51.890Z,13.60
2022-09-03T05:44:23.738Z,13.60
2022-09-03T05:46:53.669Z,13.60
2022-09-03T05:49:23.246Z,13.50
2022-09-03T05:51:52.990Z,13.40
2022-09-03T05:54:22.586Z,13.60
2022-09-03T05:56:51.969Z,13.58
2022-09-03T05:59:21.267Z,13.50
2022-09-03T06:01:52.348Z,13.46
2022-09-03T06:04:24.072Z,13.40
2022-09-03T06:06:53.581Z,13.40
2022-09-03T06:09:23.907Z,13.34
2022-09-03T06:11:54.605Z,13.40
2022-09-03T06:14:27.039Z,13.50
2022-09-03T06:16:56.845Z,13.62
2022-09-03T06:19:26.437Z,13.74
2022-09-03T06:21:56.035Z,13.80
2022-09-03T06:24:28.426Z,13.90
2022-09-03T06:26:58.225Z,13.90
2022-09-03T06:29:28.131Z,14.00
2022-09-03T06:31:58.101Z,14.10
2022-09-03T06:34:28.370Z,14.16
2022-09-03T06:36:58.703Z,14.28
2022-09-03T06:39:27.376Z,14.40
2022-09-03T06:41:57.066Z,14.60
2022-09-03T06:44:35.818Z,14.70
2022-09-03T06:47:05.425Z,14.90
2022-09-03T06:49:34.742Z,15.10
2022-09-03T06:52:04.845Z,15.16
2022-09-03T06:54:34.351Z,15.30
2022-09-03T06:57:03.887Z,15.40
2022-09-03T06:59:33.460Z,15.50
2022-09-03T07:02:03.609Z,15.62
2022-09-03T07:04:34.299Z,15.80
2022-09-03T07:07:02.897Z,16.00
2022-09-03T07:09:35.886Z,16.14
2022-09-03T07:12:06.136Z,16.30
2022-09-03T07:14:35.611Z,16.30
2022-09-03T07:17:05.015Z,16.32
2022-09-03T07:19:34.343Z,16.40
2022-09-03T07:22:04.779Z,16.52
2022-09-03T07:24:35.379Z,16.60
2022-09-03T07:27:11.797Z,16.70
2022-09-03T07:29:43.810Z,16.80
2022-09-03T07:32:13.241Z,16.98
2022-09-03T07:34:42.615Z,17.16
2022-09-03T07:37:12.046Z,17.30
2022-09-03T07:39:41.508Z,17.30
2022-09-03T07:42:11.138Z,17.40
2022-09-03T07:44:40.638Z,17.50
2022-09-03T07:47:10.042Z,17.60
2022-09-03T07:49:39.348Z,17.70
2022-09-03T07:52:08.746Z,17.82
2022-09-03T07:54:42.448Z,18.00
2022-09-03T07:57:11.041Z,18.20
2022-09-03T07:59:40.681Z,18.32
2022-09-03T08:02:10.211Z,18.40
2022-09-03T08:04:40.673Z,18.50
2022-09-03T08:07:10.215Z,18.76
2022-09-03T08:09:39.581Z,18.92
2022-09-03T08:12:09.999Z,19.10
2022-09-03T08:14:38.722Z,19.30
2022-09-03T08:17:09.015Z,19.60
2022-09-03T08:19:38.266Z,19.80
2022-09-03T08:22:08.163Z,19.90
2022-09-03T08:24:38.249Z,20.00
2022-09-03T08:27:07.866Z,20.12
2022-09-03T08:29:37.302Z,20.30
2022-09-03T08:32:07.278Z,20.40
2022-09-03T08:34:37.195Z,20.70
2022-09-03T08:37:07.147Z,21.18
2022-09-03T08:39:36.587Z,21.66
2022-09-03T08:42:25.682Z,22.00
2022-09-03T08:45:00.107Z,22.10
2022-09-03T08:47:34.822Z,22.18
2022-09-03T08:50:12.733Z,22.20
2022-09-03T08:52:49.531Z,22.48
2022-09-03T08:55:25.611Z,22.94
2022-09-03T08:58:02.169Z,23.36
2022-09-03T09:00:47.310Z,23.86
2022-09-03T09:03:42.363Z,24.48
2022-09-03T09:06:26.568Z,24.94
2022-09-03T09:09:10.599Z,25.20
2022-09-03T09:11:50.865Z,25.30
2022-09-03T09:14:28.975Z,25.70
2022-09-03T09:17:19.085Z,26.00
2022-09-03T09:19:52.233Z,26.60
2022-09-03T09:22:30.565Z,26.80
2022-09-03T09:25:06.830Z,26.90
2022-09-03T09:27:36.243Z,27.26
2022-09-03T09:30:07.626Z,27.40
2022-09-03T09:32:38.941Z,27.52
2022-09-03T09:35:11.691Z,27.80
2022-09-03T09:37:51.347Z,28.14
2022-09-03T09:40:35.098Z,28.60
2022-09-03T09:43:15.515Z,28.90
2022-09-03T09:45:47.793Z,29.22
2022-09-03T09:48:31.050Z,29.40
2022-09-03T09:51:10.033Z,29.40
2022-09-03T09:53:39.595Z,29.20
2022-09-03T09:56:20.461Z,29.68
2022-09-03T09:58:52.317Z,29.92
2022-09-03T10:01:25.641Z,30.10
2022-09-03T10:03:58.785Z,30.00
2022-09-03T10:06:45.436Z,29.34
2022-09-03T10:09:17.293Z,29.16
2022-09-03T10:11:50.985Z,28.80
2022-09-03T10:14:27.749Z,29.06
2022-09-03T10:17:05.160Z,28.92
2022-09-03T10:20:08.847Z,29.28
2022-09-03T10:22:48.373Z,29.34
2022-09-03T10:25:38.683Z,30.00
2022-09-03T10:28:10.480Z,30.60
2022-09-03T10:31:03.365Z,31.00
2022-09-03T10:33:39.560Z,31.22
2022-09-03T10:36:22.071Z,30.64
2022-09-03T10:39:01.178Z,30.90
2022-09-03T10:41:47.502Z,31.32
2022-09-03T10:45:04.107Z,32.14
2022-09-03T10:48:32.493Z,33.02
2022-09-03T10:51:07.219Z,33.24
2022-09-03T10:54:03.050Z,32.90
2022-09-03T10:56:44.326Z,32.50
2022-09-03T10:59:36.257Z,32.96
2022-09-03T11:02:31.594Z,33.66
2022-09-03T11:05:07.209Z,33.06
2022-09-03T11:07:40.048Z,32.96
2022-09-03T11:10:19.237Z,33.24
2022-09-03T11:12:56.011Z,31.72
2022-09-03T11:15:28.946Z,30.60
2022-09-03T11:18:04.709Z,29.34
2022-09-03T11:20:35.384Z,28.86
2022-09-03T11:23:08.927Z,30.68
2022-09-03T11:25:49.238Z,32.34
2022-09-03T11:28:33.949Z,34.04
2022-09-03T11:31:23.412Z,34.80
2022-09-03T11:33:58.813Z,33.16
2022-09-03T11:36:34.589Z,33.84
2022-09-03T11:39:18.376Z,34.78
2022-09-03T11:41:59.226Z,35.30
2022-09-03T11:44:37.819Z,34.26
2022-09-03T11:47:38.178Z,31.54
2022-09-03T11:50:20.685Z,29.58
2022-09-03T11:52:52.911Z,28.30
2022-09-03T11:55:38.250Z,29.52
2022-09-03T11:58:23.874Z,29.42
2022-09-03T12:00:54.807Z,28.00
2022-09-03T12:03:30.315Z,28.78
2022-09-03T12:06:32.327Z,30.94
2022-09-03T12:09:30.599Z,30.56
2022-09-03T12:12:13.962Z,28.90
2022-09-03T12:14:56.743Z,30.02
2022-09-03T12:17:35.190Z,31.26
2022-09-03T12:20:15.039Z,31.52
2022-09-03T12:22:44.444Z,30.52
2022-09-03T12:25:15.219Z,31.48
2022-09-03T12:27:46.588Z,31.58
2022-09-03T12:30:19.523Z,32.36
2022-09-03T12:32:51.033Z,33.08
2022-09-03T12:38:24.805Z,34.80
2022-09-03T12:43:52.626Z,34.52
2022-09-03T12:46:33.894Z,34.20
2022-09-03T12:52:06.090Z,34.14
2022-09-03T12:54:36.760Z,34.86
2022-09-03T12:57:06.614Z,34.16
2022-09-03T12:59:38.397Z,32.04
2022-09-03T13:02:17.660Z,29.94
2022-09-03T13:04:47.875Z,28.18
2022-09-03T13:07:27.114Z,28.08
2022-09-03T13:10:03.847Z,30.10
2022-09-03T13:12:53.236Z,29.44
2022-09-03T13:15:25.775Z,28.30
2022-09-03T13:18:21.201Z,27.22
2022-09-03T13:21:07.546Z,26.48
2022-09-03T13:24:06.069Z,26.00
2022-09-03T13:26:49.167Z,25.68
2022-09-03T13:29:38.017Z,25.28
2022-09-03T13:32:23.285Z,25.14
2022-09-03T13:34:57.817Z,25.30
2022-09-03T13:37:34.188Z,26.06
2022-09-03T13:40:15.459Z,26.36
2022-09-03T13:42:55.288Z,26.42
2022-09-03T13:45:37.267Z,26.00
2022-09-03T13:48:34.982Z,25.52
2022-09-03T13:51:13.949Z,25.40
2022-09-03T13:53:56.410Z,25.64
2022-09-03T13:56:44.945Z,25.64
2022-09-03T13:59:24.629Z,26.06
2022-09-03T14:02:20.698Z,26.40
2022-09-03T14:05:07.027Z,26.32
2022-09-03T14:08:07.356Z,27.04
2022-09-03T14:10:55.196Z,28.66
2022-09-03T14:13:41.606Z,28.94
2022-09-03T14:16:25.078Z,28.08
2022-09-03T14:18:59.758Z,27.34
2022-09-03T14:21:36.033Z,26.52
2022-09-03T14:24:14.872Z,25.80
2022-09-03T14:26:54.875Z,25.36
2022-09-03T14:29:26.906Z,25.10
2022-09-03T14:32:21.970Z,26.06
2022-09-03T14:35:15.341Z,26.00
2022-09-03T14:38:15.967Z,25.42
2022-09-03T14:40:48.548Z,26.96
2022-09-03T14:43:37.732Z,28.90
2022-09-03T14:46:25.252Z,30.46
2022-09-03T14:49:18.396Z,31.40
2022-09-03T14:52:07.564Z,32.10
2022-09-03T14:54:51.098Z,33.26
2022-09-03T14:57:53.702Z,33.80
2022-09-03T15:00:33.828Z,32.36
2022-09-03T15:03:40.614Z,31.50
2022-09-03T15:06:36.434Z,31.94
2022-09-03T15:09:27.706Z,31.96
2022-09-03T15:12:03.612Z,31.88
2022-09-03T15:14:46.428Z,31.68
2022-09-03T15:17:47.398Z,31.06
2022-09-03T15:20:32.027Z,29.92
2022-09-03T15:23:32.763Z,29.30
2022-09-03T15:26:51.660Z,27.84
2022-09-03T15:29:37.418Z,26.66
2022-09-03T15:32:19.108Z,25.76
2022-09-03T15:35:04.376Z,24.98
2022-09-03T15:37:42.710Z,24.26
2022-09-03T15:40:24.473Z,23.68
2022-09-03T15:43:00.675Z,23.20
2022-09-03T15:45:39.731Z,22.92
2022-09-03T15:48:23.621Z,22.60
2022-09-03T15:51:03.208Z,22.30
2022-09-03T15:53:39.728Z,22.10
2022-09-03T15:56:20.218Z,21.90
2022-09-03T15:59:02.924Z,21.80
2022-09-03T16:01:44.611Z,21.70
2022-09-03T16:04:39.100Z,21.60
2022-09-03T16:07:21.530Z,21.50
2022-09-03T16:10:25.291Z,21.40
2022-09-03T16:13:08.222Z,21.30
2022-09-03T16:15:43.773Z,21.26
2022-09-03T16:18:24.686Z,21.20
2022-09-03T16:21:01.320Z,21.20
2022-09-03T16:23:42.102Z,21.20
2022-09-03T16:26:19.279Z,21.10
2022-09-03T16:28:53.896Z,21.00
2022-09-03T16:31:47.835Z,21.06
2022-09-03T16:34:29.484Z,22.24
2022-09-03T16:37:08.507Z,23.36
2022-09-03T16:39:51.242Z,24.24
2022-09-03T16:42:29.280Z,24.70
2022-09-03T16:45:14.294Z,24.60
2022-09-03T16:47:59.982Z,24.80
2022-09-03T16:50:48.438Z,24.36
2022-09-03T16:53:28.678Z,23.38
2022-09-03T16:56:13.648Z,22.64
2022-09-03T16:58:57.353Z,22.10
2022-09-03T17:01:52.099Z,21.70
2022-09-03T17:05:07.323Z,21.34
2022-09-03T17:07:57.858Z,20.90
2022-09-03T17:10:37.601Z,20.62
2022-09-03T17:13:31.736Z,20.40
2022-09-03T17:16:15.863Z,20.20
2022-09-03T17:19:05.616Z,20.00
2022-09-03T17:22:01.037Z,19.86
2022-09-03T17:24:40.359Z,19.70
2022-09-03T17:27:47.050Z,19.60
2022-09-03T17:30:26.267Z,19.42
2022-09-03T17:33:34.720Z,19.30
2022-09-03T17:36:14.397Z,19.20
2022-09-03T17:39:30.433Z,19.10
2022-09-03T17:42:05.848Z,19.00
2022-09-03T17:45:00.163Z,18.90
2022-09-03T17:47:56.318Z,18.90
2022-09-03T17:50:29.089Z,18.80
2022-09-03T17:53:03.077Z,18.70
2022-09-03T17:55:37.233Z,18.70
2022-09-03T17:58:14.858Z,18.60
2022-09-03T18:00:55.462Z,18.58
2022-09-03T18:03:32.536Z,18.50
2022-09-03T18:06:08.716Z,18.44
2022-09-03T18:08:53.384Z,18.40
2022-09-03T18:11:33.845Z,18.36
2022-09-03T18:14:17.153Z,18.30
2022-09-03T18:16:59.978Z,18.20
2022-09-03T18:19:58.284Z,18.10
2022-09-03T18:22:54.585Z,18.06
2022-09-03T18:25:46.618Z,17.98
2022-09-03T18:28:37.836Z,17.86
2022-09-03T18:31:31.619Z,17.80
2022-09-03T18:34:21.096Z,17.70
2022-09-03T18:37:09.429Z,17.60
2022-09-03T18:39:57.412Z,17.50
2022-09-03T18:42:53.192Z,17.50
2022-09-03T18:46:38.541Z,17.40
2022-09-03T18:49:13.363Z,17.40
2022-09-03T18:52:14.780Z,17.40
2022-09-03T18:55:19.924Z,17.32
2022-09-03T18:58:23.539Z,17.30
2022-09-03T19:01:23.698Z,17.22
2022-09-03T19:04:27.325Z,17.20
2022-09-03T19:07:26.173Z,17.20
2022-09-03T19:10:24.031Z,17.10
2022-09-03T19:13:32.514Z,17.10
2022-09-03T19:16:28.385Z,17.00
2022-09-03T19:19:53.032Z,16.98
2022-09-03T19:22:48.034Z,16.90
2022-09-03T19:25:36.589Z,16.90
2022-09-03T19:28:35.325Z,16.80
2022-09-03T19:32:01.827Z,16.80
2022-09-03T19:35:31.444Z,16.78
2022-09-03T19:38:35.554Z,16.70
2022-09-03T19:41:36.726Z,16.70
2022-09-03T19:44:45.533Z,16.70
2022-09-03T19:47:44.831Z,16.60
2022-09-03T19:50:40.583Z,16.50
2022-09-03T19:53:32.406Z,16.40
2022-09-03T19:56:25.043Z,16.30
2022-09-03T19:59:19.003Z,16.30
2022-09-03T20:02:08.895Z,16.30
2022-09-03T20:05:04.923Z,16.24
2022-09-03T20:07:55.518Z,16.20
2022-09-03T20:10:24.211Z,16.20
2022-09-03T20:13:07.766Z,16.10
2022-09-03T20:15:51.319Z,16.10
2022-09-03T20:18:40.640Z,16.00
2022-09-03T20:21:21.464Z,15.98
2022-09-03T20:24:00.053Z,15.90
2022-09-03T20:26:52.374Z,16.00
2022-09-03T20:29:51.726Z,16.00
2022-09-03T20:32:38.448Z,16.00
2022-09-03T20:35:19.158Z,16.00
2022-09-03T20:38:02.497Z,16.06
2022-09-03T20:40:45.631Z,16.02
2022-09-03T20:43:38.341Z,16.00
2022-09-03T20:46:29.967Z,16.00
2022-09-03T20:49:07.849Z,15.90
2022-09-03T20:51:47.438Z,15.80
2022-09-03T20:54:23.771Z,15.70
2022-09-03T20:57:18.591Z,15.60
2022-09-03T21:00:10.524Z,15.60
2022-09-03T21:03:15.565Z,15.50
2022-09-03T21:06:00.836Z,15.50
2022-09-03T21:08:53.183Z,15.40
2022-09-03T21:11:36.137Z,15.30
2022-09-03T21:14:19.080Z,15.30
2022-09-03T21:17:01.114Z,15.20
2022-09-03T21:19:47.207Z,15.10
2022-09-03T21:22:29.385Z,15.10
2022-09-03T21:25:04.989Z,15.10
2022-09-03T21:27:42.912Z,15.00
2022-09-03T21:30:17.362Z,15.00
2022-09-03T21:32:51.246Z,15.00
2022-09-03T21:35:27.686Z,14.90
2022-09-03T21:38:08.690Z,14.90
2022-09-03T21:40:46.830Z,14.90
2022-09-03T21:43:23.862Z,14.90
2022-09-03T21:46:01.985Z,14.90
2022-09-03T21:48:38.094Z,14.90
2022-09-03T21:51:13.742Z,14.88
2022-09-03T21:53:48.068Z,14.80
2022-09-03T21:56:56.781Z,14.80
2022-09-03T21:59:58.646Z,14.80
2022-09-03T22:02:31.475Z,14.70
2022-09-03T22:05:03.054Z,14.70
2022-09-03T22:07:53.643Z,14.60
2022-09-03T22:10:31.438Z,14.60
2022-09-03T22:13:16.955Z,14.56
2022-09-03T22:15:50.769Z,14.50
2022-09-03T22:18:28.846Z,14.50
2022-09-03T22:21:12.743Z,14.50
2022-09-03T22:24:07.106Z,14.50
2022-09-03T22:26:45.116Z,14.46
2022-09-03T22:29:30.377Z,14.40
2022-09-03T22:32:11.578Z,14.40
2022-09-03T22:35:16.342Z,14.40
2022-09-03T22:38:05.508Z,14.40
2022-09-03T22:40:46.747Z,14.40
2022-09-03T22:43:36.600Z,14.30
2022-09-03T22:46:14.509Z,14.30
2022-09-03T22:49:18.342Z,14.30
2022-09-03T22:52:04.448Z,14.30
2022-09-03T22:54:55.972Z,14.20
2022-09-03T22:57:29.052Z,14.20
2022-09-03T23:00:04.900Z,14.14
2022-09-03T23:02:35.467Z,14.10
2022-09-03T23:05:10.693Z,14.10
2022-09-03T23:07:53.343Z,14.10
2022-09-03T23:10:30.160Z,14.10
2022-09-03T23:13:10.043Z,14.10
2022-09-03T23:15:42.195Z,14.10
2022-09-03T23:18:16.926Z,14.10
2022-09-03T23:21:02.853Z,14.04
2022-09-03T23:23:36.810Z,14.00
2022-09-03T23:26:21.287Z,14.00
2022-09-03T23:28:57.657Z,13.90
2022-09-03T23:31:28.937Z,13.90
2022-09-03T23:33:58.785Z,13.90
2022-09-03T23:37:10.255Z,13.80
2022-09-03T23:39:57.514Z,13.80
2022-09-03T23:42:41.958Z,13.80
2022-09-03T23:45:26.928Z,13.80
2022-09-03T23:48:09.032Z,13.80
2022-09-03T23:50:47.851Z,13.78
2022-09-03T23:53:36.789Z,13.70
2022-09-03T23:56:45.367Z,13.70
2022-09-03T23:59:28.151Z,13.70
